createdAt,value
2022-09-24T00:02:21.177Z,55.84
2022-09-24T00:04:53.572Z,56.08
2022-09-24T00:07:23.348Z,55.68
2022-09-24T00:09:55.163Z,56.29
2022-09-24T00:12:26.624Z,55.08
2022-09-24T00:14:58.194Z,55.88
2022-09-24T00:17:27.922Z,55.83
2022-09-24T00:19:58.815Z,55.88
2022-09-24T00:22:29.265Z,55.50
2022-09-24T00:25:19.039Z,56.19
2022-09-24T00:27:48.293Z,54.93
2022-09-24T00:30:20.857Z,55.38
2022-09-24T00:33:12.875Z,55.47
2022-09-24T00:35:45.027Z,54.64
2022-09-24T00:38:16.165Z,55.42
2022-09-24T00:40:47.742Z,55.40
2022-09-24T00:43:36.229Z,56.00
2022-09-24T00:46:33.864Z,55.95
2022-09-24T00:49:15.559Z,55.74
2022-09-24T00:51:53.513Z,54.99
2022-09-24T00:54:27.406Z,56.37
2022-09-24T00:57:01.074Z,57.09
2022-09-24T00:59:31.687Z,56.90
2022-09-24T01:02:03.816Z,56.90
2022-09-24T01:04:33.341Z,57.25
2022-09-24T01:07:03.910Z,56.92
2022-09-24T01:09:32.789Z,57.44
2022-09-24T01:12:29.003Z,56.99
2022-09-24T01:15:12.658Z,57.73
2022-09-24T01:17:49.199Z,56.64
2022-09-24T01:20:48.534Z,56.84
2022-09-24T01:23:31.424Z,56.26
2022-09-24T01:26:19.976Z,57.18
2022-09-24T01:29:17.712Z,57.10
2022-09-24T01:31:51.526Z,56.99
2022-09-24T01:34:27.937Z,56.95
2022-09-24T01:37:00.075Z,57.85
2022-09-24T01:39:32.964Z,58.04
2022-09-24T01:42:04.018Z,56.74
2022-09-24T01:44:38.277Z,57.88
2022-09-24T01:47:10.261Z,56.82
2022-09-24T01:49:43.095Z,57.61
2022-09-24T01:52:17.706Z,57.57
2022-09-24T01:54:52.926Z,58.16
2022-09-24T01:57:27.201Z,58.54
2022-09-24T02:00:19.639Z,58.03
2022-09-24T02:03:14.091Z,57.39
2022-09-24T02:05:53.058Z,57.36
2022-09-24T02:08:25.001Z,56.84
2022-09-24T02:11:09.097Z,57.97
2022-09-24T02:13:57.216Z,59.80
2022-09-24T02:16:34.017Z,58.20
2022-09-24T02:19:06.890Z,56.89
2022-09-24T02:21:39.876Z,56.67
2022-09-24T02:24:13.037Z,56.17
2022-09-24T02:26:44.789Z,57.10
2022-09-24T02:29:14.776Z,57.27
2022-09-24T02:31:50.242Z,57.38
2022-09-24T02:34:24.030Z,57.61
2022-09-24T02:37:07.079Z,56.38
2022-09-24T02:39:36.772Z,56.12
2022-09-24T02:42:11.164Z,57.63
2022-09-24T02:44:41.584Z,57.52
2022-09-24T02:47:12.031Z,57.86
2022-09-24T02:49:41.611Z,57.91
2022-09-24T02:52:14.297Z,57.06
2022-09-24T02:54:43.703Z,57.24
2022-09-24T02:57:14.225Z,58.40
2022-09-24T02:59:43.401Z,58.70
2022-09-24T03:02:15.716Z,58.62
2022-09-24T03:04:45.269Z,58.15
2022-09-24T03:07:16.403Z,58.65
2022-09-24T03:09:46.608Z,57.67
2022-09-24T03:12:19.585Z,56.96
2022-09-24T03:14:50.089Z,56.89
2022-09-24T03:17:21.370Z,57.88
2022-09-24T03:19:51.190Z,57.95
2022-09-24T03:22:22.301Z,57.84
2022-09-24T03:24:51.800Z,57.11
2022-09-24T03:27:22.305Z,57.61
2022-09-24T03:30:10.197Z,57.13
2022-09-24T03:32:42.184Z,58.13
2022-09-24T03:35:12.074Z,58.12
2022-09-24T03:37:48.367Z,57.76
2022-09-24T03:40:18.447Z,57.77
2022-09-24T03:42:50.162Z,57.57
2022-09-24T03:45:20.990Z,58.04
2022-09-24T03:47:53.580Z,57.68
2022-09-24T03:50:24.237Z,57.06
2022-09-24T03:52:56.162Z,57.31
2022-09-24T03:55:25.201Z,57.72
2022-09-24T03:57:56.315Z,58.58
2022-09-24T04:00:25.604Z,57.47
2022-09-24T04:02:55.915Z,58.63
2022-09-24T04:05:26.323Z,58.56
2022-09-24T04:07:59.478Z,58.36
2022-09-24T04:10:30.028Z,57.50
2022-09-24T04:13:02.093Z,57.68
2022-09-24T04:15:33.247Z,57.90
2022-09-24T04:18:04.226Z,58.55
2022-09-24T04:20:36.043Z,57.92
2022-09-24T04:23:05.631Z,57.58
2022-09-24T04:25:35.085Z,58.56
2022-09-24T04:28:07.507Z,58.22
2022-09-24T04:30:37.417Z,57.74
2022-09-24T04:33:09.499Z,56.81
2022-09-24T04:35:39.188Z,58.20
2022-09-24T04:38:09.693Z,57.35
2022-09-24T04:40:40.744Z,58.50
2022-09-24T04:43:13.203Z,57.90
2022-09-24T04:45:45.954Z,57.56
2022-09-24T04:48:17.951Z,57.10
2022-09-24T04:50:46.700Z,57.09
2022-09-24T04:53:16.730Z,58.79
2022-09-24T04:55:47.975Z,57.69
2022-09-24T04:58:21.668Z,58.40
2022-09-24T05:00:53.955Z,58.66
2022-09-24T05:03:23.595Z,58.70
2022-09-24T05:05:56.240Z,58.61
2022-09-24T05:08:25.983Z,58.09
2022-09-24T05:10:56.681Z,58.18
2022-09-24T05:13:29.024Z,57.82
2022-09-24T05:16:01.511Z,58.35
2022-09-24T05:18:31.360Z,59.38
2022-09-24T05:21:05.205Z,58.94
2022-09-24T05:23:34.056Z,58.77
2022-09-24T05:26:22.441Z,59.37
2022-09-24T05:28:53.594Z,59.25
2022-09-24T05:31:25.250Z,59.19
2022-09-24T05:33:56.961Z,59.35
2022-09-24T05:36:29.649Z,59.13
2022-09-24T05:39:00.315Z,58.71
2022-09-24T05:41:33.047Z,58.64
2022-09-24T05:44:08.000Z,58.43
2022-09-24T05:46:39.480Z,58.54
2022-09-24T05:49:11.722Z,58.61
2022-09-24T05:51:43.925Z,58.02
2022-09-24T05:54:13.257Z,57.72
2022-09-24T05:56:47.641Z,57.19
2022-09-24T05:59:16.510Z,58.54
2022-09-24T06:01:45.889Z,58.16
2022-09-24T06:04:18.723Z,58.56
2022-09-24T06:06:48.495Z,58.92
2022-09-24T06:09:19.342Z,59.68
2022-09-24T06:11:52.945Z,58.67
2022-09-24T06:14:23.828Z,57.99
2022-09-24T06:16:53.797Z,58.09
2022-09-24T06:19:25.345Z,57.60
2022-09-24T06:21:55.361Z,57.80
2022-09-24T06:24:24.324Z,57.88
2022-09-24T06:26:53.353Z,58.16
2022-09-24T06:29:22.248Z,58.12
2022-09-24T06:31:54.339Z,58.47
2022-09-24T06:34:28.041Z,58.56
2022-09-24T06:37:02.399Z,59.13
2022-09-24T06:39:31.888Z,58.99
2022-09-24T06:42:03.858Z,58.53
2022-09-24T06:44:37.303Z,58.22
2022-09-24T06:47:07.521Z,58.24
2022-09-24T06:49:36.708Z,59.10
2022-09-24T06:52:06.569Z,58.98
2022-09-24T06:54:37.393Z,58.74
2022-09-24T06:57:08.288Z,58.81
2022-09-24T06:59:38.526Z,58.29
2022-09-24T07:02:10.572Z,57.59
2022-09-24T07:04:41.646Z,57.21
2022-09-24T07:07:29.904Z,56.81
2022-09-24T07:10:05.786Z,56.54
2022-09-24T07:12:37.595Z,55.86
2022-09-24T07:15:10.378Z,56.20
2022-09-24T07:17:39.517Z,55.67
2022-09-24T07:20:09.950Z,55.39
2022-09-24T07:22:41.544Z,55.31
2022-09-24T07:25:12.939Z,55.42
2022-09-24T07:27:43.170Z,55.40
2022-09-24T07:30:13.511Z,54.57
2022-09-24T07:32:44.502Z,54.41
2022-09-24T07:35:15.092Z,54.46
2022-09-24T07:37:45.798Z,54.29
2022-09-24T07:40:15.190Z,54.14
2022-09-24T07:42:49.679Z,53.28
2022-09-24T07:45:29.146Z,52.81
2022-09-24T07:48:03.094Z,53.00
2022-09-24T07:50:35.354Z,52.72
2022-09-24T07:53:06.881Z,52.44
2022-09-24T07:55:41.465Z,52.76
2022-09-24T07:58:15.757Z,52.69
2022-09-24T08:00:48.434Z,52.59
2022-09-24T08:03:20.715Z,51.77
2022-09-24T08:05:51.385Z,52.50
2022-09-24T08:08:22.991Z,51.79
2022-09-24T08:10:51.938Z,51.72
2022-09-24T08:13:27.756Z,51.01
2022-09-24T08:16:02.213Z,50.69
2022-09-24T08:18:33.427Z,50.33
2022-09-24T08:21:07.195Z,49.99
2022-09-24T08:23:42.303Z,49.68
2022-09-24T08:26:11.974Z,48.80
2022-09-24T08:28:44.727Z,48.13
2022-09-24T08:31:15.167Z,47.33
2022-09-24T08:33:51.468Z,44.91
2022-09-24T08:36:21.222Z,44.12
2022-09-24T08:38:55.623Z,43.71
2022-09-24T08:41:44.433Z,43.14
2022-09-24T08:44:48.062Z,44.11
2022-09-24T08:47:46.164Z,44.15
2022-09-24T08:50:24.164Z,44.09
2022-09-24T08:53:14.031Z,43.98
2022-09-24T08:55:48.000Z,42.91
2022-09-24T08:58:25.507Z,42.41
2022-09-24T09:01:16.161Z,42.40
2022-09-24T09:03:57.510Z,43.25
2022-09-24T09:06:54.824Z,42.44
2022-09-24T09:09:44.952Z,43.39
2022-09-24T09:12:23.714Z,43.07
2022-09-24T09:15:04.568Z,43.17
2022-09-24T09:17:51.425Z,43.33
2022-09-24T09:20:21.800Z,45.33
2022-09-24T09:22:53.471Z,44.00
2022-09-24T09:25:30.519Z,43.78
2022-09-24T09:28:03.975Z,43.63
2022-09-24T09:30:44.163Z,42.85
2022-09-24T09:33:42.210Z,42.34
2022-09-24T09:36:33.977Z,42.23
2022-09-24T09:39:22.490Z,41.59
2022-09-24T09:42:23.780Z,42.48
2022-09-24T09:44:56.694Z,42.18
2022-09-24T09:47:31.555Z,41.43
2022-09-24T09:50:09.474Z,40.35
2022-09-24T09:52:42.780Z,41.82
2022-09-24T09:55:28.880Z,41.97
2022-09-24T09:58:17.846Z,40.89
2022-09-24T10:00:50.009Z,40.42
2022-09-24T10:03:44.790Z,41.15
2022-09-24T10:06:27.504Z,40.65
2022-09-24T10:09:17.902Z,41.98
2022-09-24T10:11:48.503Z,40.54
2022-09-24T10:14:38.629Z,40.25
2022-09-24T10:17:11.233Z,40.83
2022-09-24T10:19:41.243Z,40.35
2022-09-24T10:22:22.595Z,40.68
2022-09-24T10:24:57.022Z,40.09
2022-09-24T10:27:33.612Z,40.99
2022-09-24T10:30:34.740Z,38.96
2022-09-24T10:33:06.598Z,39.82
2022-09-24T10:35:39.836Z,38.44
2022-09-24T10:38:25.717Z,36.93
2022-09-24T10:40:58.312Z,36.61
2022-09-24T10:43:28.650Z,35.11
2022-09-24T10:46:10.298Z,34.59
2022-09-24T10:48:46.751Z,34.27
2022-09-24T10:51:53.033Z,34.62
2022-09-24T10:54:28.636Z,35.22
2022-09-24T10:57:26.445Z,33.81
2022-09-24T11:00:10.028Z,33.61
2022-09-24T11:03:00.330Z,33.97
2022-09-24T11:05:39.144Z,33.51
2022-09-24T11:08:23.232Z,34.01
2022-09-24T11:11:10.174Z,35.35
2022-09-24T11:13:57.286Z,35.11
2022-09-24T11:16:49.776Z,36.05
2022-09-24T11:19:19.777Z,35.37
2022-09-24T11:22:11.087Z,34.90
2022-09-24T11:25:04.020Z,34.67
2022-09-24T11:28:06.138Z,34.95
2022-09-24T11:31:03.125Z,34.85
2022-09-24T11:33:54.184Z,34.61
2022-09-24T11:36:48.430Z,34.95
2022-09-24T11:39:29.815Z,33.72
2022-09-24T11:42:07.633Z,34.10
2022-09-24T11:44:37.120Z,32.99
2022-09-24T11:47:12.485Z,33.56
2022-09-24T11:49:57.910Z,33.07
2022-09-24T11:52:41.367Z,32.59
2022-09-24T11:55:27.129Z,32.05
2022-09-24T11:58:17.018Z,33.13
2022-09-24T12:00:59.427Z,33.68
2022-09-24T12:03:42.523Z,33.96
2022-09-24T12:06:34.155Z,33.69
2022-09-24T12:09:37.779Z,34.06
2022-09-24T12:12:21.779Z,33.67
2022-09-24T12:15:06.224Z,33.66
2022-09-24T12:17:41.592Z,33.66
2022-09-24T12:20:20.272Z,34.66
2022-09-24T12:22:50.294Z,34.61
2022-09-24T12:25:20.157Z,34.69
2022-09-24T12:27:49.022Z,35.06
2022-09-24T12:30:57.727Z,34.73
2022-09-24T12:33:33.487Z,34.26
2022-09-24T12:36:34.808Z,34.28
2022-09-24T12:39:07.685Z,35.81
2022-09-24T12:41:37.448Z,36.18
2022-09-24T12:44:10.229Z,36.27
2022-09-24T12:46:46.475Z,35.87
2022-09-24T12:49:27.664Z,36.68
2022-09-24T12:51:57.147Z,36.70
2022-09-24T12:54:28.566Z,36.88
2022-09-24T12:57:07.348Z,35.96
2022-09-24T12:59:50.662Z,36.10
2022-09-24T13:02:24.041Z,35.42
2022-09-24T13:05:13.852Z,35.95
2022-09-24T13:07:42.056Z,36.42
2022-09-24T13:10:18.741Z,36.43
2022-09-24T13:12:47.684Z,36.96
2022-09-24T13:15:28.603Z,36.36
2022-09-24T13:18:03.076Z,36.16
2022-09-24T13:20:34.360Z,36.16
2022-09-24T13:23:32.273Z,35.80
2022-09-24T13:26:05.457Z,35.16
2022-09-24T13:28:52.462Z,35.46
2022-09-24T13:31:21.572Z,35.57
2022-09-24T13:33:52.821Z,35.80
2022-09-24T13:36:33.541Z,35.60
2022-09-24T13:39:30.960Z,35.18
2022-09-24T13:42:16.077Z,35.41
2022-09-24T13:44:47.889Z,34.62
2022-09-24T13:47:32.079Z,34.96
2022-09-24T13:50:23.794Z,36.05
2022-09-24T13:53:07.719Z,36.80
2022-09-24T13:55:47.279Z,36.93
2022-09-24T13:58:33.177Z,36.86
2022-09-24T14:01:25.208Z,36.96
2022-09-24T14:04:00.542Z,37.23
2022-09-24T14:06:37.694Z,37.72
2022-09-24T14:09:25.028Z,37.48
2022-09-24T14:11:56.849Z,37.00
2022-09-24T14:14:28.184Z,37.07
2022-09-24T14:17:09.877Z,37.06
2022-09-24T14:19:39.566Z,36.83
2022-09-24T14:22:15.463Z,37.00
2022-09-24T14:25:06.598Z,36.91
2022-09-24T14:27:40.159Z,36.96
2022-09-24T14:30:17.464Z,36.79
2022-09-24T14:32:45.665Z,36.82
2022-09-24T14:35:23.050Z,37.03
2022-09-24T14:37:55.150Z,36.66
2022-09-24T14:40:23.982Z,36.77
2022-09-24T14:43:00.504Z,36.51
2022-09-24T14:45:34.950Z,36.69
2022-09-24T14:48:18.388Z,37.45
2022-09-24T14:50:47.823Z,36.83
2022-09-24T14:53:34.254Z,37.63
2022-09-24T14:56:28.327Z,38.39
2022-09-24T14:59:00.700Z,38.41
2022-09-24T15:01:33.664Z,38.26
2022-09-24T15:04:08.424Z,37.77
2022-09-24T15:06:37.847Z,38.27
2022-09-24T15:09:31.592Z,37.89
2022-09-24T15:12:10.735Z,37.39
2022-09-24T15:14:39.847Z,37.61
2022-09-24T15:17:11.039Z,38.29
2022-09-24T15:19:43.189Z,38.07
2022-09-24T15:22:12.282Z,38.17
2022-09-24T15:24:40.163Z,39.04
2022-09-24T15:27:19.924Z,39.09
2022-09-24T15:29:48.179Z,39.48
2022-09-24T15:32:18.264Z,38.97
2022-09-24T15:34:47.378Z,39.52
2022-09-24T15:37:19.782Z,39.91
2022-09-24T15:39:49.304Z,39.38
2022-09-24T15:42:24.148Z,39.68
2022-09-24T15:44:54.805Z,39.31
2022-09-24T15:47:23.707Z,40.26
2022-09-24T15:49:51.887Z,39.37
2022-09-24T15:52:32.160Z,39.56
2022-09-24T15:55:02.289Z,40.37
2022-09-24T15:57:30.627Z,40.74
2022-09-24T15:59:58.839Z,40.75
2022-09-24T16:02:32.172Z,41.15
2022-09-24T16:05:04.217Z,40.42
2022-09-24T16:07:33.261Z,40.20
2022-09-24T16:10:01.765Z,39.78
2022-09-24T16:12:30.267Z,40.47
2022-09-24T16:15:00.806Z,40.20
2022-09-24T16:17:29.387Z,40.22
2022-09-24T16:19:58.578Z,39.99
2022-09-24T16:22:26.661Z,39.66
2022-09-24T16:24:54.821Z,39.65
2022-09-24T16:27:23.191Z,39.35
2022-09-24T16:29:51.942Z,40.28
2022-09-24T16:32:19.941Z,40.18
2022-09-24T16:34:48.732Z,40.49
2022-09-24T16:37:18.475Z,40.79
2022-09-24T16:39:46.460Z,41.07
2022-09-24T16:42:14.703Z,40.86
2022-09-24T16:44:43.078Z,40.96
2022-09-24T16:47:11.737Z,41.76
2022-09-24T16:49:39.847Z,42.65
2022-09-24T16:52:07.678Z,43.14
2022-09-24T16:54:36.979Z,42.86
2022-09-24T16:57:09.014Z,43.19
2022-09-24T16:59:37.884Z,43.22
2022-09-24T17:02:05.961Z,42.82
2022-09-24T17:04:34.591Z,43.24
2022-09-24T17:07:03.818Z,43.44
2022-09-24T17:09:50.318Z,42.89
2022-09-24T17:12:19.411Z,43.07
2022-09-24T17:14:46.981Z,43.15
2022-09-24T17:17:15.034Z,42.69
2022-09-24T17:19:45.455Z,42.90
2022-09-24T17:22:13.173Z,43.41
2022-09-24T17:24:41.271Z,43.14
2022-09-24T17:27:09.477Z,43.55
2022-09-24T17:29:38.151Z,43.88
2022-09-24T17:32:06.446Z,44.04
2022-09-24T17:34:35.993Z,43.91
2022-09-24T17:37:04.194Z,43.71
2022-09-24T17:39:32.620Z,44.76
2022-09-24T17:42:02.611Z,46.13
2022-09-24T17:44:30.826Z,46.28
2022-09-24T17:47:00.799Z,46.28
2022-09-24T17:49:29.517Z,46.54
2022-09-24T17:52:01.564Z,47.04
2022-09-24T17:54:29.619Z,46.86
2022-09-24T17:56:58.422Z,47.63
2022-09-24T17:59:27.151Z,47.03
2022-09-24T18:01:56.275Z,47.32
2022-09-24T18:04:27.442Z,46.86
2022-09-24T18:06:55.614Z,47.56
2022-09-24T18:09:24.203Z,47.75
2022-09-24T18:11:52.828Z,47.98
2022-09-24T18:14:22.875Z,48.26
2022-09-24T18:16:51.787Z,48.73
2022-09-24T18:19:20.520Z,47.82
2022-09-24T18:21:51.115Z,48.07
2022-09-24T18:24:20.195Z,47.90
2022-09-24T18:26:51.499Z,48.15
2022-09-24T18:29:21.189Z,47.56
2022-09-24T18:31:51.788Z,47.42
2022-09-24T18:34:20.281Z,47.54
2022-09-24T18:36:48.285Z,47.43
2022-09-24T18:39:21.931Z,47.80
2022-09-24T18:41:53.319Z,47.53
2022-09-24T18:44:22.121Z,47.91
2022-09-24T18:46:51.173Z,47.55
2022-09-24T18:49:20.036Z,47.99
2022-09-24T18:51:49.142Z,47.99
2022-09-24T18:54:18.404Z,48.14
2022-09-24T18:56:48.288Z,48.87
2022-09-24T18:59:20.056Z,50.91
2022-09-24T19:01:50.841Z,52.37
2022-09-24T19:04:19.591Z,52.91
2022-09-24T19:06:48.675Z,53.39
2022-09-24T19:09:18.958Z,53.95
2022-09-24T19:11:48.884Z,53.93
2022-09-24T19:14:18.537Z,54.24
2022-09-24T19:16:47.441Z,53.78
2022-09-24T19:19:16.373Z,54.04
2022-09-24T19:21:45.738Z,54.87
2022-09-24T19:24:13.295Z,54.70
2022-09-24T19:26:41.200Z,55.41
2022-09-24T19:29:10.086Z,55.84
2022-09-24T19:31:41.835Z,54.61
2022-09-24T19:34:13.004Z,55.38
2022-09-24T19:36:45.030Z,55.58
2022-09-24T19:39:16.369Z,56.70
2022-09-24T19:41:45.093Z,56.40
2022-09-24T19:44:16.772Z,56.83
2022-09-24T19:46:45.543Z,56.52
2022-09-24T19:49:15.206Z,56.40
2022-09-24T19:51:43.631Z,56.19
2022-09-24T19:54:12.923Z,55.84
2022-09-24T19:56:41.606Z,56.10
2022-09-24T19:59:10.007Z,55.31
2022-09-24T20:01:38.362Z,55.35
2022-09-24T20:04:07.685Z,55.23
2022-09-24T20:06:37.115Z,56.46
2022-09-24T20:09:05.526Z,56.26
2022-09-24T20:11:35.490Z,57.22
2022-09-24T20:14:06.263Z,56.37
2022-09-24T20:16:35.484Z,57.17
2022-09-24T20:19:05.284Z,57.88
2022-09-24T20:21:39.279Z,58.27
2022-09-24T20:24:12.699Z,57.98
2022-09-24T20:27:01.935Z,57.71
2022-09-24T20:29:31.610Z,58.54
2022-09-24T20:32:01.428Z,57.17
2022-09-24T20:34:34.254Z,56.80
2022-09-24T20:37:06.156Z,57.44
2022-09-24T20:39:35.122Z,57.07
2022-09-24T20:42:06.202Z,57.08
2022-09-24T20:44:35.541Z,56.33
2022-09-24T20:47:04.229Z,57.41
2022-09-24T20:49:33.370Z,56.47
2022-09-24T20:52:03.327Z,56.35
2022-09-24T20:54:33.714Z,56.44
2022-09-24T20:57:01.984Z,57.29
2022-09-24T20:59:30.928Z,58.57
2022-09-24T21:02:04.251Z,58.16
2022-09-24T21:04:36.847Z,57.16
2022-09-24T21:07:05.707Z,57.11
2022-09-24T21:09:34.032Z,57.88
2022-09-24T21:12:03.723Z,58.00
2022-09-24T21:14:35.561Z,57.55
2022-09-24T21:17:03.672Z,57.48
2022-09-24T21:19:35.741Z,58.44
2022-09-24T21:22:03.513Z,58.41
2022-09-24T21:24:32.130Z,58.15
2022-09-24T21:27:00.160Z,58.00
2022-09-24T21:29:27.856Z,58.39
2022-09-24T21:31:55.943Z,58.50
2022-09-24T21:34:24.263Z,57.58
2022-09-24T21:36:53.242Z,56.64
2022-09-24T21:39:24.338Z,55.99
2022-09-24T21:41:59.564Z,55.78
2022-09-24T21:44:34.194Z,56.30
2022-09-24T21:47:01.927Z,56.34
2022-09-24T21:49:33.691Z,56.59
2022-09-24T21:52:05.044Z,56.63
2022-09-24T21:54:34.096Z,56.98
2022-09-24T21:57:02.425Z,56.63
2022-09-24T21:59:50.159Z,57.73
2022-09-24T22:02:20.340Z,57.58
2022-09-24T22:04:51.000Z,56.86
2022-09-24T22:07:19.484Z,56.82
2022-09-24T22:09:50.192Z,56.81
2022-09-24T22:12:22.998Z,57.26
2022-09-24T22:14:53.278Z,59.54
2022-09-24T22:17:26.401Z,58.01
2022-09-24T22:19:58.110Z,57.71
2022-09-24T22:22:28.511Z,57.96
2022-09-24T22:25:01.113Z,57.69
2022-09-24T22:27:32.211Z,57.53
2022-09-24T22:30:03.239Z,58.61
2022-09-24T22:32:38.192Z,58.95
2022-09-24T22:35:29.928Z,58.83
2022-09-24T22:38:01.042Z,59.92
2022-09-24T22:40:31.045Z,58.48
2022-09-24T22:43:05.444Z,58.83
2022-09-24T22:45:35.810Z,58.08
2022-09-24T22:48:07.943Z,58.63
2022-09-24T22:50:39.123Z,59.10
2022-09-24T22:53:10.557Z,58.65
2022-09-24T22:55:40.141Z,58.60
2022-09-24T22:58:13.953Z,58.67
2022-09-24T23:00:44.419Z,59.39
2022-09-24T23:03:15.015Z,60.05
2022-09-24T23:05:46.322Z,58.95
2022-09-24T23:08:18.169Z,59.55
2022-09-24T23:10:48.069Z,58.99
2022-09-24T23:13:21.082Z,58.99
2022-09-24T23:15:55.376Z,58.86
2022-09-24T23:18:27.961Z,58.61
2022-09-24T23:20:58.315Z,58.89
2022-09-24T23:23:28.685Z,59.58
2022-09-24T23:26:14.250Z,59.58
2022-09-24T23:28:53.608Z,58.59
2022-09-24T23:31:29.736Z,58.36
2022-09-24T23:34:02.150Z,58.14
2022-09-24T23:36:34.194Z,58.77
2022-09-24T23:39:06.407Z,58.70
2022-09-24T23:41:37.789Z,59.10
2022-09-24T23:44:11.944Z,59.52
2022-09-24T23:46:42.106Z,59.50
2022-09-24T23:49:12.964Z,58.77
2022-09-24T23:51:44.817Z,58.66
2022-09-24T23:54:16.471Z,58.29
2022-09-24T23:56:46.617Z,58.58
2022-09-24T23:59:18.913Z,58.20
